createdAt,value
2018-09-08T00:00:50.091Z,5.8
2018-09-08T00:02:50.125Z,5.9
2018-09-08T00:04:50.459Z,5.9
2018-09-08T00:06:49.651Z,5.9
2018-09-08T00:08:49.655Z,5.9
2018-09-08T00:10:49.665Z,5.9
2018-09-08T00:12:49.759Z,5.9
2018-09-08T00:14:49.779Z,5.9
2018-09-08T00:16:49.930Z,5.6
2018-09-08T00:18:50.050Z,6.0
2018-09-08T00:20:50.084Z,6.0
2018-09-08T00:22:50.092Z,6.0
2018-09-08T00:24:50.052Z,5.6
2018-09-08T00:26:50.138Z,5.9
2018-09-08T00:28:50.086Z,5.8
2018-09-08T00:30:49.625Z,5.8
2018-09-08T00:32:49.556Z,6.2
2018-09-08T00:34:49.902Z,6.1
2018-09-08T00:36:49.979Z,6.1
2018-09-08T00:38:50.030Z,5.5
2018-09-08T00:40:50.058Z,5.5
2018-09-08T00:42:50.132Z,5.7
2018-09-08T00:44:50.138Z,6.1
2018-09-08T00:46:50.375Z,5.6
2018-09-08T00:48:50.388Z,5.3
2018-09-08T00:50:50.394Z,5.3
2018-09-08T00:52:50.393Z,5.4
2018-09-08T00:54:50.344Z,5.5
2018-09-08T00:56:50.599Z,5.5
2018-09-08T00:58:49.981Z,5.3
2018-09-08T01:00:49.942Z,5.3
2018-09-08T01:02:49.899Z,5.7
2018-09-08T01:04:50.136Z,5.4
2018-09-08T01:06:50.302Z,5.7
2018-09-08T01:08:50.235Z,5.7
2018-09-08T01:10:50.228Z,5.4
2018-09-08T01:12:50.140Z,5.4
2018-09-08T01:14:50.181Z,5.2
2018-09-08T01:16:50.420Z,5.2
2018-09-08T01:18:50.470Z,5.1
2018-09-08T01:20:50.407Z,4.9
2018-09-08T01:22:49.577Z,5.1
2018-09-08T01:24:49.553Z,5.2
2018-09-08T01:26:49.747Z,5.2
2018-09-08T01:28:49.796Z,5.1
2018-09-08T01:30:49.769Z,5.1
2018-09-08T01:32:49.773Z,5.0
2018-09-08T01:34:50.055Z,4.6
2018-09-08T01:36:50.276Z,4.6
2018-09-08T01:38:50.207Z,4.6
2018-09-08T01:40:50.301Z,4.9
2018-09-08T01:42:50.323Z,4.7
2018-09-08T01:44:49.664Z,5.0
2018-09-08T01:46:49.864Z,5.0
2018-09-08T01:48:49.828Z,5.0
2018-09-08T01:50:49.803Z,4.7
2018-09-08T01:52:49.804Z,4.8
2018-09-08T01:54:49.800Z,5.1
2018-09-08T01:56:50.007Z,5.1
2018-09-08T01:58:49.999Z,4.8
2018-09-08T02:00:50.013Z,4.6
2018-09-08T02:02:50.042Z,4.8
2018-09-08T02:04:50.401Z,4.8
2018-09-08T02:06:49.587Z,4.7
2018-09-08T02:08:49.554Z,4.6
2018-09-08T02:10:49.546Z,4.9
2018-09-08T02:12:49.645Z,4.9
2018-09-08T02:14:49.631Z,4.9
2018-09-08T02:16:49.781Z,4.6
2018-09-08T02:18:49.814Z,5.0
2018-09-08T02:20:49.819Z,4.7
2018-09-08T02:22:49.757Z,4.9
2018-09-08T02:24:49.805Z,4.9
2018-09-08T02:26:49.943Z,5.1
2018-09-08T02:28:49.936Z,5.1
2018-09-08T02:30:49.891Z,5.3
2018-09-08T02:32:49.922Z,5.1
2018-09-08T02:34:50.188Z,5.1
2018-09-08T02:36:50.502Z,4.9
2018-09-08T02:38:49.606Z,4.9
2018-09-08T02:40:49.763Z,4.8
2018-09-08T02:42:49.803Z,4.9
2018-09-08T02:44:49.908Z,4.9
2018-09-08T02:46:50.132Z,5.0
2018-09-08T02:48:50.187Z,4.8
2018-09-08T02:50:50.202Z,5.1
2018-09-08T02:52:50.196Z,4.7
2018-09-08T02:54:50.227Z,4.7
2018-09-08T02:56:50.287Z,5.1
2018-09-08T02:58:50.454Z,5.1
2018-09-08T03:00:50.495Z,5.2
2018-09-08T03:02:49.518Z,5.2
2018-09-08T03:04:49.888Z,5.2
2018-09-08T03:06:50.099Z,5.4
2018-09-08T03:08:50.101Z,5.2
2018-09-08T03:10:50.069Z,5.2
2018-09-08T03:12:50.096Z,5.1
2018-09-08T03:14:50.114Z,5.4
2018-09-08T03:16:50.202Z,5.4
2018-09-08T03:18:50.163Z,5.4
2018-09-08T03:20:50.134Z,5.4
2018-09-08T03:22:50.158Z,5.4
2018-09-08T03:24:50.161Z,5.5
2018-09-08T03:26:50.477Z,5.4
2018-09-08T03:28:50.501Z,5.7
2018-09-08T03:30:50.459Z,5.8
2018-09-08T03:32:49.531Z,5.8
2018-09-08T03:34:50.030Z,5.6
2018-09-08T03:36:50.176Z,5.6
2018-09-08T03:38:50.200Z,6.5
2018-09-08T03:40:50.199Z,6.5
2018-09-08T03:42:50.210Z,6.2
2018-09-08T03:44:50.141Z,6.0
2018-09-08T03:46:50.402Z,5.8
2018-09-08T03:48:50.311Z,6.3
2018-09-08T03:50:50.360Z,6.3
2018-09-08T03:52:50.403Z,5.7
2018-09-08T03:54:50.329Z,5.9
2018-09-08T03:56:49.562Z,5.5
2018-09-08T03:58:49.650Z,5.4
2018-09-08T04:00:49.808Z,5.4
2018-09-08T04:02:49.881Z,5.9
2018-09-08T04:04:50.360Z,6.5
2018-09-08T04:06:49.544Z,6.5
2018-09-08T04:08:49.563Z,6.6
2018-09-08T04:10:49.697Z,6.6
2018-09-08T04:12:49.685Z,6.7
2018-09-08T04:14:49.772Z,6.5
2018-09-08T04:16:49.976Z,6.3
2018-09-08T04:18:49.973Z,6.6
2018-09-08T04:20:49.981Z,7.1
2018-09-08T04:22:50.021Z,7.1
2018-09-08T04:24:50.212Z,6.9
2018-09-08T04:26:49.807Z,6.9
2018-09-08T04:28:49.823Z,6.8
2018-09-08T04:30:49.930Z,6.9
2018-09-08T04:32:49.918Z,6.9
2018-09-08T04:34:50.018Z,7.3
2018-09-08T04:36:50.209Z,6.7
2018-09-08T04:38:50.238Z,7.2
2018-09-08T04:40:50.248Z,7.2
2018-09-08T04:42:49.572Z,7.3
2018-09-08T04:44:49.579Z,7.3
2018-09-08T04:46:49.707Z,7.3
2018-09-08T04:48:49.695Z,7.3
2018-09-08T04:50:49.767Z,7.4
2018-09-08T04:52:49.801Z,7.1
2018-09-08T04:54:49.744Z,6.8
2018-09-08T04:56:49.786Z,6.8
2018-09-08T04:58:49.859Z,7.6
2018-09-08T05:00:49.768Z,8.0
2018-09-08T05:02:49.763Z,7.7
2018-09-08T05:04:50.096Z,7.3
2018-09-08T05:06:50.264Z,7.5
2018-09-08T05:08:50.260Z,7.5
2018-09-08T05:10:50.259Z,7.5
2018-09-08T05:12:50.252Z,7.6
2018-09-08T05:14:50.402Z,7.1
2018-09-08T05:16:49.591Z,7.5
2018-09-08T05:18:49.678Z,7.5
2018-09-08T05:20:49.827Z,7.5
2018-09-08T05:22:49.960Z,8.1
2018-09-08T05:24:49.994Z,8.1
2018-09-08T05:26:50.297Z,7.9
2018-09-08T05:28:50.228Z,8.0
2018-09-08T05:30:50.247Z,7.4
2018-09-08T05:32:50.319Z,7.4
2018-09-08T05:34:49.625Z,7.4
2018-09-08T05:36:49.731Z,7.4
2018-09-08T05:38:49.664Z,7.5
2018-09-08T05:40:49.767Z,7.5
2018-09-08T05:42:49.869Z,7.7
2018-09-08T05:44:50.048Z,7.3
2018-09-08T05:46:50.100Z,7.3
2018-09-08T05:48:50.341Z,8.2
2018-09-08T05:50:49.649Z,7.5
2018-09-08T05:52:49.789Z,7.5
2018-09-08T05:54:49.713Z,7.6
2018-09-08T05:56:49.840Z,7.6
2018-09-08T05:58:49.821Z,7.8
2018-09-08T06:00:49.824Z,7.7
2018-09-08T06:02:49.808Z,8.0
2018-09-08T06:04:50.200Z,7.4
2018-09-08T06:06:50.419Z,7.4
2018-09-08T06:08:50.295Z,8.3
2018-09-08T06:10:50.333Z,8.3
2018-09-08T06:12:50.490Z,8.2
2018-09-08T06:14:50.449Z,8.2
2018-09-08T06:16:49.654Z,8.5
2018-09-08T06:18:49.670Z,8.4
2018-09-08T06:20:49.766Z,8.4
2018-09-08T06:22:49.800Z,8.6
2018-09-08T06:24:49.841Z,8.6
2018-09-08T06:26:49.987Z,9.0
2018-09-08T06:28:50.060Z,9.0
2018-09-08T06:30:50.081Z,9.6
2018-09-08T06:32:49.995Z,9.3
2018-09-08T06:34:50.452Z,9.3
2018-09-08T06:36:49.673Z,9.8
2018-09-08T06:38:49.688Z,9.3
2018-09-08T06:40:49.818Z,9.3
2018-09-08T06:42:49.805Z,9.2
2018-09-08T06:44:49.864Z,9.3
2018-09-08T06:46:49.599Z,9.3
2018-09-08T06:48:49.594Z,9.6
2018-09-08T06:50:49.645Z,9.6
2018-09-08T06:52:49.667Z,11.4
2018-09-08T06:54:49.770Z,11.4
2018-09-08T06:56:49.877Z,10.0
2018-09-08T06:58:49.760Z,10.1
2018-09-08T07:00:49.785Z,10.4
2018-09-08T07:02:49.739Z,10.4
2018-09-08T07:04:50.115Z,10.4
2018-09-08T07:06:50.144Z,10.4
2018-09-08T07:08:50.122Z,11.0
2018-09-08T07:10:50.134Z,10.2
2018-09-08T07:12:50.086Z,10.2
2018-09-08T07:14:50.189Z,10.2
2018-09-08T07:16:50.298Z,10.8
2018-09-08T07:18:50.273Z,9.7
2018-09-08T07:20:50.295Z,10.4
2018-09-08T07:22:50.293Z,10.1
2018-09-08T07:24:50.399Z,10.1
2018-09-08T07:26:49.915Z,10.2
2018-09-08T07:28:49.936Z,10.2
2018-09-08T07:30:49.929Z,12.6
2018-09-08T07:32:49.949Z,12.9
2018-09-08T07:34:50.161Z,12.9
2018-09-08T07:36:50.292Z,12.9
2018-09-08T07:38:50.302Z,12.6
2018-09-08T07:40:50.381Z,12.9
2018-09-08T07:42:50.330Z,12.9
2018-09-08T07:44:50.315Z,12.4
2018-09-08T07:46:49.561Z,13.3
2018-09-08T07:48:49.550Z,12.7
2018-09-08T07:50:49.630Z,12.4
2018-09-08T07:52:49.710Z,12.4
2018-09-08T07:54:49.696Z,12.0
2018-09-08T07:56:49.908Z,12.3
2018-09-08T07:58:49.879Z,13.5
2018-09-08T08:00:49.874Z,15.9
2018-09-08T08:02:49.848Z,15.9
2018-09-08T08:04:50.376Z,12.2
2018-09-08T08:06:49.726Z,11.7
2018-09-08T08:08:50.147Z,11.7
2018-09-08T08:10:50.064Z,11.7
2018-09-08T08:12:50.117Z,12.1
2018-09-08T08:14:50.152Z,11.3
2018-09-08T08:16:50.297Z,11.2
2018-09-08T08:18:50.395Z,11.3
2018-09-08T08:20:49.664Z,11.3
2018-09-08T08:22:49.819Z,11.5
2018-09-08T08:24:49.916Z,11.5
2018-09-08T08:26:50.137Z,10.9
2018-09-08T08:28:50.133Z,10.9
2018-09-08T08:30:50.091Z,9.7
2018-09-08T08:32:50.039Z,8.2
2018-09-08T08:34:50.357Z,8.1
2018-09-08T08:36:49.548Z,7.4
2018-09-08T08:38:49.671Z,6.6
2018-09-08T08:40:49.688Z,6.6
2018-09-08T08:42:49.704Z,7.2
2018-09-08T08:44:49.809Z,5.0
2018-09-08T08:46:50.081Z,3.9
2018-09-08T08:48:50.152Z,3.9
2018-09-08T08:50:50.151Z,3.9
2018-09-08T08:52:50.153Z,4.6
2018-09-08T08:54:50.328Z,5.6
2018-09-08T08:56:49.530Z,6.5
2018-09-08T08:58:50.510Z,6.5
2018-09-08T09:00:49.620Z,6.3
2018-09-08T09:02:49.753Z,5.4
2018-09-08T09:04:50.090Z,3.7
2018-09-08T09:06:50.233Z,3.3
2018-09-08T09:08:50.473Z,3.3
2018-09-08T09:10:50.552Z,3.5
2018-09-08T09:12:49.774Z,4.1
2018-09-08T09:14:50.118Z,4.1
2018-09-08T09:16:50.330Z,4.3
2018-09-08T09:18:51.566Z,4.3
2018-09-08T09:20:49.720Z,4.2
2018-09-08T09:22:49.772Z,4.3
2018-09-08T09:24:50.914Z,4.0
2018-09-08T09:26:49.705Z,3.4
2018-09-08T09:28:49.662Z,3.4
2018-09-08T09:30:49.691Z,3.6
2018-09-08T09:32:49.727Z,3.3
2018-09-08T09:34:50.101Z,3.5
2018-09-08T09:36:50.237Z,3.2
2018-09-08T09:38:50.309Z,3.2
2018-09-08T09:40:50.293Z,3.4
2018-09-08T09:42:50.297Z,4.2
2018-09-08T09:44:50.372Z,3.8
2018-09-08T09:46:49.529Z,3.8
2018-09-08T09:48:49.600Z,3.9
2018-09-08T09:50:49.631Z,3.5
2018-09-08T09:52:49.799Z,3.9
2018-09-08T09:54:49.804Z,4.4
2018-09-08T09:56:49.972Z,4.4
2018-09-08T09:58:50.189Z,3.6
2018-09-08T10:00:50.239Z,3.8
2018-09-08T10:02:49.832Z,4.3
2018-09-08T10:04:50.499Z,4.3
2018-09-08T10:06:50.005Z,3.6
2018-09-08T10:08:50.203Z,3.3
2018-09-08T10:10:50.352Z,3.3
2018-09-08T10:12:50.498Z,3.1
2018-09-08T10:14:49.678Z,3.1
2018-09-08T10:16:50.133Z,3.2
2018-09-08T10:18:50.440Z,3.2
2018-09-08T10:20:49.671Z,3.5
2018-09-08T10:22:49.809Z,3.0
2018-09-08T10:24:50.017Z,3.0
2018-09-08T10:26:49.571Z,2.8
2018-09-08T10:28:49.758Z,2.8
2018-09-08T10:30:50.061Z,2.8
2018-09-08T10:32:50.322Z,2.5
2018-09-08T10:34:49.839Z,2.5
2018-09-08T10:36:50.398Z,2.9
2018-09-08T10:38:50.347Z,4.4
2018-09-08T10:40:50.445Z,2.8
2018-09-08T10:42:50.393Z,2.6
2018-09-08T10:44:50.505Z,2.6
2018-09-08T10:46:49.638Z,3.0
2018-09-08T10:48:49.664Z,2.7
2018-09-08T10:50:49.902Z,2.7
2018-09-08T10:52:50.199Z,2.8
2018-09-08T10:54:50.234Z,2.8
2018-09-08T10:56:50.412Z,2.5
2018-09-08T10:58:50.347Z,2.8
2018-09-08T11:00:50.368Z,2.8
2018-09-08T11:02:51.146Z,2.2
2018-09-08T11:04:50.229Z,2.2
2018-09-08T11:06:50.512Z,2.3
2018-09-08T11:08:49.820Z,2.2
2018-09-08T11:10:49.831Z,2.6
2018-09-08T11:12:49.851Z,2.6
2018-09-08T11:14:49.796Z,2.5
2018-09-08T11:16:50.075Z,2.6
2018-09-08T11:18:50.152Z,2.2
2018-09-08T11:20:50.421Z,2.2
2018-09-08T11:22:50.488Z,2.2
2018-09-08T11:24:49.581Z,2.5
2018-09-08T11:26:49.793Z,2.2
2018-09-08T11:28:49.752Z,2.4
2018-09-08T11:30:49.764Z,2.4
2018-09-08T11:32:49.689Z,2.1
2018-09-08T11:34:50.119Z,1.9
2018-09-08T11:36:50.283Z,2.3
2018-09-08T11:38:50.223Z,2.2
2018-09-08T11:40:50.219Z,2.6
2018-09-08T11:42:50.248Z,2.6
2018-09-08T11:44:50.573Z,2.3
2018-09-08T11:46:50.157Z,2.3
2018-09-08T11:48:50.212Z,2.3
2018-09-08T11:50:50.232Z,3.1
2018-09-08T11:52:50.547Z,3.1
2018-09-08T11:54:49.728Z,3.1
2018-09-08T11:56:49.927Z,2.1
2018-09-08T11:58:49.894Z,2.1
2018-09-08T12:00:49.927Z,2.1
2018-09-08T12:02:50.002Z,2.1
2018-09-08T12:04:50.313Z,1.7
2018-09-08T12:06:50.498Z,1.8
2018-09-08T12:08:49.543Z,1.9
2018-09-08T12:10:49.576Z,2.1
2018-09-08T12:12:49.634Z,2.1
2018-09-08T12:14:49.794Z,1.8
2018-09-08T12:16:49.941Z,1.9
2018-09-08T12:18:49.985Z,1.8
2018-09-08T12:20:50.013Z,2.0
2018-09-08T12:22:50.035Z,2.0
2018-09-08T12:24:50.023Z,1.9
2018-09-08T12:26:50.194Z,1.9
2018-09-08T12:28:50.187Z,1.9
2018-09-08T12:30:50.367Z,1.9
2018-09-08T12:32:49.676Z,1.9
2018-09-08T12:34:50.126Z,1.8
2018-09-08T12:36:50.274Z,1.7
2018-09-08T12:38:50.449Z,1.7
2018-09-08T12:40:49.944Z,2.0
2018-09-08T12:42:49.935Z,2.8
2018-09-08T12:44:49.973Z,1.9
2018-09-08T12:46:50.083Z,1.9
2018-09-08T12:48:50.099Z,1.9
2018-09-08T12:50:50.148Z,1.8
2018-09-08T12:52:50.244Z,1.7
2018-09-08T12:54:50.165Z,1.7
2018-09-08T12:56:50.368Z,2.1
2018-09-08T12:58:50.403Z,2.1
2018-09-08T13:00:50.372Z,1.9
2018-09-08T13:02:50.382Z,2.0
2018-09-08T13:04:49.828Z,2.0
2018-09-08T13:06:49.996Z,1.7
2018-09-08T13:08:50.026Z,1.7
2018-09-08T13:10:50.012Z,1.9
2018-09-08T13:12:49.990Z,1.8
2018-09-08T13:14:49.996Z,1.8
2018-09-08T13:16:50.175Z,1.7
2018-09-08T13:18:50.140Z,1.7
2018-09-08T13:20:50.156Z,1.6
2018-09-08T13:22:50.380Z,1.6
2018-09-08T13:24:50.325Z,1.8
2018-09-08T13:26:49.679Z,1.8
2018-09-08T13:28:49.725Z,1.9
2018-09-08T13:30:49.757Z,1.7
2018-09-08T13:32:49.755Z,1.8
2018-09-08T13:34:50.080Z,2.0
2018-09-08T13:36:50.266Z,1.9
2018-09-08T13:38:50.265Z,1.9
2018-09-08T13:40:50.262Z,1.9
2018-09-08T13:42:50.312Z,1.8
2018-09-08T13:44:50.343Z,1.6
2018-09-08T13:46:50.588Z,1.7
2018-09-08T13:48:50.022Z,1.7
2018-09-08T13:50:50.021Z,1.6
2018-09-08T13:52:50.167Z,1.9
2018-09-08T13:54:49.573Z,1.7
2018-09-08T13:56:49.821Z,1.7
2018-09-08T13:58:49.813Z,1.9
2018-09-08T14:00:49.769Z,2.0
2018-09-08T14:02:49.789Z,1.6
2018-09-08T14:04:50.078Z,1.7
2018-09-08T14:06:50.193Z,1.7
2018-09-08T14:08:50.360Z,1.6
2018-09-08T14:10:50.370Z,1.8
2018-09-08T14:12:50.374Z,1.8
2018-09-08T14:14:50.358Z,1.6
2018-09-08T14:16:50.466Z,1.6
2018-09-08T14:18:49.526Z,1.6
2018-09-08T14:20:49.640Z,1.6
2018-09-08T14:22:49.648Z,1.6
2018-09-08T14:24:49.681Z,1.6
2018-09-08T14:26:49.848Z,1.6
2018-09-08T14:28:49.862Z,1.5
2018-09-08T14:30:49.871Z,1.7
2018-09-08T14:32:49.867Z,1.8
2018-09-08T14:34:50.275Z,1.8
2018-09-08T14:36:49.752Z,1.6
2018-09-08T14:38:50.195Z,1.6
2018-09-08T14:40:49.679Z,1.7
2018-09-08T14:42:49.914Z,1.7
2018-09-08T14:44:50.230Z,1.7
2018-09-08T14:46:50.424Z,1.7
2018-09-08T14:48:50.519Z,1.7
2018-09-08T14:50:49.629Z,1.7
2018-09-08T14:52:49.753Z,1.7
2018-09-08T14:54:49.738Z,1.7
2018-09-08T14:56:50.317Z,1.7
2018-09-08T14:58:50.008Z,1.8
2018-09-08T15:00:50.094Z,1.6
2018-09-08T15:02:50.097Z,1.9
2018-09-08T15:04:50.874Z,1.9
2018-09-08T15:06:50.381Z,1.6
2018-09-08T15:08:50.499Z,2.0
2018-09-08T15:10:50.522Z,1.7
2018-09-08T15:12:49.676Z,1.7
2018-09-08T15:14:49.797Z,1.7
2018-09-08T15:16:49.995Z,1.8
2018-09-08T15:18:49.964Z,1.7
2018-09-08T15:20:49.952Z,1.7
2018-09-08T15:22:50.016Z,1.6
2018-09-08T15:24:50.055Z,1.6
2018-09-08T15:26:50.298Z,1.7
2018-09-08T15:28:50.312Z,1.7
2018-09-08T15:30:50.262Z,1.6
2018-09-08T15:32:50.439Z,1.6
2018-09-08T15:34:50.031Z,1.6
2018-09-08T15:36:50.163Z,1.6
2018-09-08T15:38:50.080Z,1.6
2018-09-08T15:40:50.157Z,1.5
2018-09-08T15:42:50.288Z,1.5
2018-09-08T15:44:50.361Z,1.6
2018-09-08T15:46:49.680Z,1.5
2018-09-08T15:48:49.730Z,1.5
2018-09-08T15:50:49.799Z,1.8
2018-09-08T15:52:49.805Z,1.8
2018-09-08T15:54:49.815Z,1.5
2018-09-08T15:56:50.044Z,1.7
2018-09-08T15:58:50.076Z,1.6
2018-09-08T16:00:50.149Z,2.1
2018-09-08T16:02:50.141Z,2.1
2018-09-08T16:04:49.590Z,1.8
2018-09-08T16:06:50.001Z,1.8
2018-09-08T16:08:50.057Z,1.8
2018-09-08T16:10:50.182Z,1.6
2018-09-08T16:12:49.526Z,1.6
2018-09-08T16:14:49.648Z,1.6
2018-09-08T16:16:50.000Z,1.9
2018-09-08T16:18:50.284Z,1.9
2018-09-08T16:20:49.682Z,1.9
2018-09-08T16:22:49.776Z,2.0
2018-09-08T16:24:49.933Z,1.9
2018-09-08T16:26:50.040Z,1.7
2018-09-08T16:28:50.107Z,1.7
2018-09-08T16:30:50.231Z,1.7
2018-09-08T16:32:50.176Z,1.7
2018-09-08T16:34:49.771Z,1.9
2018-09-08T16:36:49.869Z,1.9
2018-09-08T16:38:49.979Z,1.8
2018-09-08T16:40:49.796Z,1.8
2018-09-08T16:42:49.880Z,1.8
2018-09-08T16:44:50.054Z,1.8
2018-09-08T16:46:50.312Z,2.1
2018-09-08T16:48:50.291Z,1.7
2018-09-08T16:50:49.609Z,1.7
2018-09-08T16:52:49.755Z,2.0
2018-09-08T16:54:49.727Z,2.0
2018-09-08T16:56:49.941Z,1.9
2018-09-08T16:58:49.958Z,1.9
2018-09-08T17:00:50.128Z,1.8
2018-09-08T17:02:50.098Z,2.0
2018-09-08T17:04:50.474Z,2.1
2018-09-08T17:06:50.172Z,2.3
2018-09-08T17:08:49.544Z,2.3
2018-09-08T17:10:49.753Z,2.3
2018-09-08T17:12:49.973Z,2.1
2018-09-08T17:14:50.051Z,2.3
2018-09-08T17:16:50.301Z,2.0
2018-09-08T17:18:50.337Z,2.0
2018-09-08T17:20:50.315Z,2.0
2018-09-08T17:22:50.508Z,2.1
2018-09-08T17:24:49.817Z,2.0
2018-09-08T17:26:50.009Z,2.1
2018-09-08T17:28:50.098Z,2.1
2018-09-08T17:30:50.108Z,1.9
2018-09-08T17:32:50.119Z,2.2
2018-09-08T17:34:50.455Z,2.2
2018-09-08T17:36:49.713Z,2.3
2018-09-08T17:38:49.770Z,2.3
2018-09-08T17:40:49.995Z,2.2
2018-09-08T17:42:50.074Z,2.1
2018-09-08T17:44:50.064Z,2.1
2018-09-08T17:46:50.202Z,2.3
2018-09-08T17:48:50.183Z,2.3
2018-09-08T17:50:50.266Z,2.2
2018-09-08T17:52:50.386Z,2.4
2018-09-08T17:54:50.514Z,2.5
2018-09-08T17:56:49.823Z,2.4
2018-09-08T17:58:49.931Z,2.4
2018-09-08T18:00:50.140Z,2.7
2018-09-08T18:02:50.106Z,2.7
2018-09-08T18:04:49.689Z,2.2
2018-09-08T18:06:50.017Z,2.2
2018-09-08T18:08:50.052Z,2.3
2018-09-08T18:10:50.113Z,2.8
2018-09-08T18:12:50.174Z,2.8
2018-09-08T18:14:50.192Z,3.0
2018-09-08T18:16:50.429Z,3.0
2018-09-08T18:18:49.544Z,2.9
2018-09-08T18:20:49.691Z,3.0
2018-09-08T18:22:49.821Z,3.0
2018-09-08T18:24:49.868Z,3.0
2018-09-08T18:26:50.029Z,3.0
2018-09-08T18:28:50.059Z,3.0
2018-09-08T18:30:50.090Z,2.8
2018-09-08T18:32:50.313Z,2.8
2018-09-08T18:34:49.980Z,2.9
2018-09-08T18:36:50.182Z,2.9
2018-09-08T18:38:50.283Z,2.9
2018-09-08T18:40:50.341Z,3.0
2018-09-08T18:42:50.357Z,3.2
2018-09-08T18:44:50.399Z,2.9
2018-09-08T18:46:49.595Z,2.9
2018-09-08T18:48:49.674Z,2.8
2018-09-08T18:50:49.698Z,3.0
2018-09-08T18:52:49.807Z,2.9
2018-09-08T18:54:49.916Z,2.9
2018-09-08T18:56:50.056Z,2.7
2018-09-08T18:58:50.097Z,3.2
2018-09-08T19:00:50.244Z,3.2
2018-09-08T19:02:50.269Z,3.1
2018-09-08T19:04:49.802Z,3.2
2018-09-08T19:06:50.014Z,3.2
2018-09-08T19:08:50.045Z,3.0
2018-09-08T19:10:50.072Z,3.1
2018-09-08T19:12:50.091Z,3.2
2018-09-08T19:14:50.121Z,3.2
2018-09-08T19:16:49.904Z,3.1
2018-09-08T19:18:49.900Z,3.4
2018-09-08T19:20:49.943Z,3.2
2018-09-08T19:22:50.026Z,3.5
2018-09-08T19:24:50.134Z,3.5
2018-09-08T19:26:50.268Z,3.7
2018-09-08T19:28:50.316Z,3.3
2018-09-08T19:30:50.298Z,3.4
2018-09-08T19:32:50.412Z,3.4
2018-09-08T19:34:49.726Z,3.2
2018-09-08T19:36:49.972Z,3.5
2018-09-08T19:38:50.027Z,4.3
2018-09-08T19:40:50.046Z,4.3
2018-09-08T19:42:50.621Z,4.3
2018-09-08T19:44:50.042Z,3.6
2018-09-08T19:46:50.212Z,3.5
2018-09-08T19:48:50.287Z,3.3
2018-09-08T19:50:50.371Z,3.5
2018-09-08T19:52:49.605Z,3.5
2018-09-08T19:54:49.952Z,3.4
2018-09-08T19:56:50.374Z,3.0
2018-09-08T19:58:50.439Z,3.6
2018-09-08T20:00:49.586Z,3.6
2018-09-08T20:02:49.619Z,3.8
2018-09-08T20:04:50.031Z,3.6
2018-09-08T20:06:50.238Z,3.8
2018-09-08T20:08:50.340Z,3.8
2018-09-08T20:10:50.353Z,3.8
2018-09-08T20:12:50.342Z,3.8
2018-09-08T20:14:50.390Z,3.5
2018-09-08T20:16:49.579Z,3.1
2018-09-08T20:18:49.647Z,3.2
2018-09-08T20:20:49.627Z,3.2
2018-09-08T20:22:49.666Z,3.2
2018-09-08T20:24:49.705Z,3.1
2018-09-08T20:26:50.583Z,3.3
2018-09-08T20:28:50.704Z,3.2
2018-09-08T20:30:50.093Z,3.2
2018-09-08T20:32:50.072Z,3.2
2018-09-08T20:34:50.476Z,3.3
2018-09-08T20:36:49.935Z,3.1
2018-09-08T20:38:49.987Z,3.1
2018-09-08T20:40:50.152Z,3.4
2018-09-08T20:42:50.180Z,3.4
2018-09-08T20:44:50.228Z,3.7
2018-09-08T20:46:50.421Z,3.7
2018-09-08T20:48:50.485Z,4.2
2018-09-08T20:50:49.564Z,4.2
2018-09-08T20:52:49.651Z,4.0
2018-09-08T20:54:49.652Z,4.1
2018-09-08T20:56:50.005Z,4.2
2018-09-08T20:58:50.005Z,4.3
2018-09-08T21:00:50.030Z,4.3
2018-09-08T21:02:49.995Z,4.5
2018-09-08T21:04:50.447Z,4.4
2018-09-08T21:06:49.758Z,4.6
2018-09-08T21:08:49.887Z,4.6
2018-09-08T21:10:50.017Z,4.6
2018-09-08T21:12:50.023Z,4.6
2018-09-08T21:14:50.000Z,4.6
2018-09-08T21:16:50.116Z,4.6
2018-09-08T21:18:50.130Z,4.1
2018-09-08T21:20:50.138Z,4.1
2018-09-08T21:22:50.138Z,4.1
2018-09-08T21:24:50.384Z,4.3
2018-09-08T21:26:49.740Z,3.8
2018-09-08T21:28:49.731Z,3.8
2018-09-08T21:30:49.649Z,4.2
2018-09-08T21:32:49.817Z,3.8
2018-09-08T21:34:50.174Z,4.1
2018-09-08T21:36:50.338Z,3.9
2018-09-08T21:38:50.313Z,3.9
2018-09-08T21:40:50.272Z,4.5
2018-09-08T21:42:50.309Z,3.9
2018-09-08T21:44:50.307Z,3.9
2018-09-08T21:46:50.363Z,3.9
2018-09-08T21:48:50.372Z,3.9
2018-09-08T21:50:50.355Z,4.7
2018-09-08T21:52:50.349Z,4.3
2018-09-08T21:54:50.526Z,4.2
2018-09-08T21:56:49.781Z,3.9
2018-09-08T21:58:49.812Z,3.9
2018-09-08T22:00:49.811Z,4.3
2018-09-08T22:02:49.996Z,3.9
2018-09-08T22:04:50.360Z,3.8
2018-09-08T22:06:49.641Z,4.2
2018-09-08T22:08:49.754Z,4.2
2018-09-08T22:10:49.822Z,3.9
2018-09-08T22:12:49.864Z,3.9
2018-09-08T22:14:49.894Z,3.7
2018-09-08T22:16:50.090Z,3.7
2018-09-08T22:18:50.151Z,4.3
2018-09-08T22:20:50.189Z,4.0
2018-09-08T22:22:50.217Z,4.2
2018-09-08T22:24:50.261Z,4.1
2018-09-08T22:26:50.485Z,4.1
2018-09-08T22:28:49.637Z,4.6
2018-09-08T22:30:49.643Z,4.5
2018-09-08T22:32:49.904Z,4.3
2018-09-08T22:34:49.579Z,4.3
2018-09-08T22:36:49.793Z,4.5
2018-09-08T22:38:49.955Z,4.5
2018-09-08T22:40:50.304Z,4.7
2018-09-08T22:42:50.455Z,4.7
2018-09-08T22:44:50.406Z,4.6
2018-09-08T22:46:49.678Z,4.6
2018-09-08T22:48:49.795Z,4.8
2018-09-08T22:50:49.806Z,5.0
2018-09-08T22:52:49.857Z,5.0
2018-09-08T22:54:49.950Z,5.2
2018-09-08T22:56:50.423Z,5.2
2018-09-08T22:58:49.729Z,4.6
2018-09-08T23:00:49.789Z,4.7
2018-09-08T23:02:49.778Z,4.7
2018-09-08T23:04:50.075Z,4.7
2018-09-08T23:06:50.224Z,4.9
2018-09-08T23:08:50.216Z,4.6
2018-09-08T23:10:50.309Z,4.6
2018-09-08T23:12:50.289Z,4.5
2018-09-08T23:14:50.452Z,4.5
2018-09-08T23:16:49.638Z,4.5
2018-09-08T23:18:49.699Z,4.8
2018-09-08T23:20:49.796Z,4.7
2018-09-08T23:22:49.883Z,4.8
2018-09-08T23:24:49.904Z,4.8
2018-09-08T23:26:50.207Z,4.7
2018-09-08T23:28:50.288Z,4.8
2018-09-08T23:30:50.243Z,4.8
2018-09-08T23:32:50.350Z,4.8
2018-09-08T23:34:49.645Z,4.8
2018-09-08T23:36:49.837Z,4.9
2018-09-08T23:38:49.973Z,4.9
2018-09-08T23:40:50.094Z,4.6
2018-09-08T23:42:50.209Z,4.6
2018-09-08T23:44:50.181Z,4.6
2018-09-08T23:46:50.382Z,4.3
2018-09-08T23:48:50.390Z,4.3
2018-09-08T23:50:50.339Z,4.5
2018-09-08T23:52:50.482Z,4.5
2018-09-08T23:54:49.523Z,4.5
2018-09-08T23:56:49.691Z,4.6
2018-09-08T23:58:49.760Z,4.3
